Airfield :
LOGIN :

Register | Disclaimer

   EN    FR    IT 

 










Legend :    VFR   Marginal VFR   IFR   Intensive IFR   Very Intensive IFR
Visi :
Ceiling :
>= 8 km
>= 3000ft
5 to 8 km
1000 to 3000 ft
1500m to 5 km
500 to 1000 ft
800 to 1500m
200 to 500 ft
< 800m
< 200 ft
Symbols :   Thunderstorms  Fog  Heavy snow  Heavy precipitations  Wind > 20 kt
SIGMETs :     Misc.  Thunderstorms  Icing  Turbulence  Mountain Waves  Volcanic Ashes






- Airport Elevation : 194 ft


EBCV - Chièvres

CURRENT METAR :
  • 041525Z AUTO 22012KT 9999 OVC023/// 20/16 Q1015 WHT

EXPIRED METARs :
  • 041455Z AUTO 22015KT 9999 OVC023/// 20/15 Q1015 WHT
  • 041425Z AUTO 23016KT 9999 OVC022/// 20/15 Q1015 WHT
  • 041404Z AUTO 22015KT 9999 OVC024/// 20/15 Q1015 WHT
  • 041355Z AUTO 22016KT 9999 OVC026/// 20/15 Q1015 BLU
  • 041325Z AUTO 22014KT 9999 OVC024/// 20/15 Q1015 WHT

TAF TAF EBCV
Valid from the 04 at 13:00 until the 04 at 22:00 UTC


041211Z 0413/0422 22012KT 9999 BKN018
TEMPO 0413/0422 22015G30KT 7000 -RA -DZ OVC014
PROB30
TEMPO 0413/0420 22018G35KT 4500 -RADZ SCT010 OVC018 BY EBWM



MET'MAP, your aeronautical weather chart ! - Copyright ORBIFLY December 2007 - Disclaimer

ORBIFLY MET'MAP TEAM :

Programming & Development : Alexandra Zaïnal
Concept & original design : Baudouin d'Aumeries
Assistance for programming : Marc-Olivier Méhu
Technical & hardware support : Manuel Goepfert

Contact : metmap@orbifly.com




SOURCES & CREDITS :

   NOAA